createdAt,value
2022-09-17T00:01:33.899Z,10.08
2022-09-17T00:04:04.264Z,10.00
2022-09-17T00:06:34.497Z,9.92
2022-09-17T00:09:02.593Z,9.97
2022-09-17T00:11:33.221Z,9.98
2022-09-17T00:14:04.447Z,10.05
2022-09-17T00:16:34.653Z,10.03
2022-09-17T00:19:02.972Z,10.02
2022-09-17T00:21:31.058Z,10.11
2022-09-17T00:24:00.783Z,10.10
2022-09-17T00:26:29.662Z,10.12
2022-09-17T00:28:59.063Z,10.16
2022-09-17T00:31:30.335Z,10.20
2022-09-17T00:33:59.375Z,10.24
2022-09-17T00:36:27.956Z,10.28
2022-09-17T00:38:57.771Z,10.28
2022-09-17T00:41:27.495Z,10.26
2022-09-17T00:43:57.945Z,10.38
2022-09-17T00:46:36.838Z,10.41
2022-09-17T00:49:08.604Z,10.40
2022-09-17T00:51:40.660Z,10.36
2022-09-17T00:54:11.888Z,10.38
2022-09-17T00:56:41.725Z,10.27
2022-09-17T00:59:09.677Z,10.39
2022-09-17T01:01:39.295Z,10.38
2022-09-17T01:04:07.842Z,10.53
2022-09-17T01:06:42.407Z,10.42
2022-09-17T01:09:23.066Z,10.45
2022-09-17T01:12:06.885Z,10.46
2022-09-17T01:14:47.989Z,10.38
2022-09-17T01:17:27.512Z,10.40
2022-09-17T01:20:30.959Z,10.46
2022-09-17T01:23:23.777Z,10.46
2022-09-17T01:26:07.215Z,10.40
2022-09-17T01:28:43.339Z,10.45
2022-09-17T01:31:36.107Z,10.55
2022-09-17T01:34:14.399Z,10.52
2022-09-17T01:37:03.701Z,10.40
2022-09-17T01:39:41.539Z,10.47
2022-09-17T01:42:19.339Z,10.47
2022-09-17T01:44:55.033Z,10.49
2022-09-17T01:47:28.627Z,10.49
2022-09-17T01:50:08.665Z,10.54
2022-09-17T01:52:41.796Z,10.62
2022-09-17T01:55:15.035Z,10.63
2022-09-17T01:57:48.929Z,10.64
2022-09-17T02:00:18.700Z,10.57
2022-09-17T02:02:51.515Z,10.53
2022-09-17T02:05:24.991Z,10.46
2022-09-17T02:07:57.320Z,10.61
2022-09-17T02:10:28.803Z,10.56
2022-09-17T02:13:01.002Z,10.50
2022-09-17T02:15:33.963Z,10.52
2022-09-17T02:18:08.989Z,10.48
2022-09-17T02:20:42.352Z,10.38
2022-09-17T02:23:16.107Z,10.53
2022-09-17T02:25:51.428Z,10.52
2022-09-17T02:28:28.760Z,10.50
2022-09-17T02:30:56.684Z,10.45
2022-09-17T02:33:27.836Z,10.37
2022-09-17T02:35:55.999Z,10.38
2022-09-17T02:38:26.812Z,10.31
2022-09-17T02:41:03.084Z,10.29
2022-09-17T02:43:39.679Z,10.20
2022-09-17T02:46:22.867Z,10.15
2022-09-17T02:49:13.259Z,10.16
2022-09-17T02:51:50.061Z,10.13
2022-09-17T02:54:25.751Z,10.09
2022-09-17T02:57:05.554Z,10.01
2022-09-17T02:59:42.403Z,10.05
2022-09-17T03:02:18.638Z,10.03
2022-09-17T03:04:50.782Z,10.00
2022-09-17T03:07:21.103Z,10.00
2022-09-17T03:09:49.004Z,9.95
2022-09-17T03:12:17.584Z,9.96
2022-09-17T03:14:45.921Z,9.83
2022-09-17T03:17:14.948Z,9.82
2022-09-17T03:19:42.958Z,9.91
2022-09-17T03:22:12.790Z,9.88
2022-09-17T03:24:40.881Z,9.89
2022-09-17T03:27:08.818Z,9.79
2022-09-17T03:29:36.826Z,9.90
2022-09-17T03:32:05.610Z,9.86
2022-09-17T03:34:33.637Z,9.75
2022-09-17T03:37:03.141Z,9.87
2022-09-17T03:39:32.426Z,9.78
2022-09-17T03:42:00.368Z,9.74
2022-09-17T03:44:28.426Z,9.81
2022-09-17T03:46:56.735Z,9.78
2022-09-17T03:49:24.963Z,9.74
2022-09-17T03:51:53.298Z,9.85
2022-09-17T03:54:21.405Z,9.83
2022-09-17T03:56:50.754Z,9.75
2022-09-17T03:59:18.674Z,9.80
2022-09-17T04:01:46.636Z,9.84
2022-09-17T04:04:14.471Z,9.86
2022-09-17T04:06:42.521Z,9.98
2022-09-17T04:09:10.656Z,10.03
2022-09-17T04:11:39.073Z,10.06
2022-09-17T04:14:08.342Z,10.05
2022-09-17T04:16:36.524Z,10.01
2022-09-17T04:19:04.737Z,10.04
2022-09-17T04:21:32.701Z,10.08
2022-09-17T04:24:00.526Z,10.11
2022-09-17T04:26:28.374Z,10.11
2022-09-17T04:28:56.446Z,10.20
2022-09-17T04:31:27.149Z,10.18
2022-09-17T04:33:55.308Z,10.17
2022-09-17T04:36:23.278Z,10.22
2022-09-17T04:38:51.418Z,10.28
2022-09-17T04:41:19.527Z,10.29
2022-09-17T04:43:47.711Z,10.24
2022-09-17T04:46:16.887Z,10.24
2022-09-17T04:48:46.226Z,10.29
2022-09-17T04:51:14.265Z,10.28
2022-09-17T04:53:42.136Z,10.23
2022-09-17T04:56:10.696Z,10.23
2022-09-17T04:58:39.319Z,10.16
2022-09-17T05:01:07.415Z,10.22
2022-09-17T05:03:35.294Z,10.15
2022-09-17T05:06:04.741Z,10.11
2022-09-17T05:08:32.650Z,10.13
2022-09-17T05:11:00.592Z,10.03
2022-09-17T05:13:28.451Z,9.94
2022-09-17T05:15:57.546Z,9.95
2022-09-17T05:18:26.277Z,9.90
2022-09-17T05:20:54.290Z,9.98
2022-09-17T05:23:23.490Z,9.99
2022-09-17T05:25:52.820Z,9.97
2022-09-17T05:28:20.955Z,10.12
2022-09-17T05:30:48.880Z,10.14
2022-09-17T05:33:16.863Z,10.29
2022-09-17T05:35:45.446Z,10.35
2022-09-17T05:38:13.519Z,10.39
2022-09-17T05:40:42.780Z,10.59
2022-09-17T05:43:19.107Z,10.73
2022-09-17T05:45:47.052Z,10.72
2022-09-17T05:48:16.137Z,10.76
2022-09-17T05:50:44.382Z,10.80
2022-09-17T05:53:14.000Z,10.75
2022-09-17T05:55:43.407Z,10.77
2022-09-17T05:58:13.026Z,10.80
2022-09-17T06:00:41.820Z,10.86
2022-09-17T06:03:10.371Z,10.93
2022-09-17T06:05:38.846Z,10.96
2022-09-17T06:08:07.116Z,11.10
2022-09-17T06:10:37.386Z,11.13
2022-09-17T06:13:06.785Z,11.19
2022-09-17T06:15:34.793Z,11.29
2022-09-17T06:18:05.205Z,11.41
2022-09-17T06:20:33.717Z,11.48
2022-09-17T06:23:01.604Z,11.59
2022-09-17T06:25:29.503Z,11.61
2022-09-17T06:27:57.491Z,11.63
2022-09-17T06:30:29.587Z,11.67
2022-09-17T06:33:00.596Z,11.74
2022-09-17T06:35:28.598Z,11.88
2022-09-17T06:37:56.673Z,11.96
2022-09-17T06:40:27.756Z,12.14
2022-09-17T06:42:58.631Z,12.15
2022-09-17T06:45:27.008Z,12.30
2022-09-17T06:47:56.475Z,12.44
2022-09-17T06:50:25.449Z,12.61
2022-09-17T06:52:54.796Z,12.67
2022-09-17T06:55:23.326Z,12.75
2022-09-17T06:57:51.227Z,12.77
2022-09-17T07:00:19.615Z,12.67
2022-09-17T07:02:57.840Z,12.67
2022-09-17T07:05:26.292Z,12.70
2022-09-17T07:07:54.599Z,12.83
2022-09-17T07:10:23.371Z,12.95
2022-09-17T07:12:51.220Z,12.93
2022-09-17T07:15:19.366Z,13.19
2022-09-17T07:17:47.836Z,13.44
2022-09-17T07:20:17.575Z,13.62
2022-09-17T07:22:45.579Z,13.66
2022-09-17T07:25:16.063Z,14.04
2022-09-17T07:27:43.950Z,14.25
2022-09-17T07:30:13.293Z,14.34
2022-09-17T07:32:41.297Z,14.26
2022-09-17T07:35:09.834Z,14.06
2022-09-17T07:37:39.146Z,14.20
2022-09-17T07:40:08.789Z,14.17
2022-09-17T07:42:36.830Z,14.27
2022-09-17T07:45:06.806Z,14.24
2022-09-17T07:47:40.358Z,14.27
2022-09-17T07:50:09.959Z,14.47
2022-09-17T07:52:39.612Z,14.56
2022-09-17T07:55:08.308Z,14.60
2022-09-17T07:57:36.746Z,14.61
2022-09-17T08:00:05.738Z,14.57
2022-09-17T08:02:33.914Z,14.51
2022-09-17T08:05:01.921Z,14.57
2022-09-17T08:07:29.733Z,14.70
2022-09-17T08:09:59.127Z,14.85
2022-09-17T08:12:26.870Z,14.99
2022-09-17T08:14:54.683Z,15.05
2022-09-17T08:17:22.649Z,15.32
2022-09-17T08:19:50.561Z,15.72
2022-09-17T08:22:18.456Z,16.09
2022-09-17T08:24:50.522Z,16.10
2022-09-17T08:27:23.127Z,16.39
2022-09-17T08:29:51.748Z,16.68
2022-09-17T08:32:19.729Z,16.77
2022-09-17T08:34:47.506Z,16.76
2022-09-17T08:37:15.397Z,16.64
2022-09-17T08:39:43.541Z,16.62
2022-09-17T08:42:19.319Z,16.61
2022-09-17T08:44:52.056Z,16.42
2022-09-17T08:47:26.530Z,16.19
2022-09-17T08:49:57.047Z,16.11
2022-09-17T08:52:55.041Z,15.90
2022-09-17T08:55:37.475Z,16.21
2022-09-17T08:58:41.223Z,16.88
2022-09-17T09:01:19.575Z,16.92
2022-09-17T09:04:09.604Z,16.85
2022-09-17T09:06:43.732Z,16.97
2022-09-17T09:09:15.090Z,17.40
2022-09-17T09:11:45.003Z,17.72
2022-09-17T09:14:20.352Z,17.91
2022-09-17T09:16:50.793Z,17.87
2022-09-17T09:19:25.959Z,17.84
2022-09-17T09:22:05.328Z,17.80
2022-09-17T09:24:42.155Z,18.08
2022-09-17T09:27:18.885Z,18.36
2022-09-17T09:30:03.462Z,18.44
2022-09-17T09:32:47.543Z,18.57
2022-09-17T09:35:19.530Z,18.38
2022-09-17T09:37:55.034Z,18.01
2022-09-17T09:40:41.605Z,17.71
2022-09-17T09:43:19.138Z,17.86
2022-09-17T09:46:00.432Z,18.13
2022-09-17T09:48:39.025Z,17.98
2022-09-17T09:51:18.457Z,17.89
2022-09-17T09:54:04.476Z,18.03
2022-09-17T09:56:50.419Z,17.95
2022-09-17T09:59:20.480Z,17.48
2022-09-17T10:01:48.751Z,17.43
2022-09-17T10:04:22.311Z,17.26
2022-09-17T10:06:53.395Z,16.99
2022-09-17T10:09:22.711Z,16.77
2022-09-17T10:12:06.196Z,16.42
2022-09-17T10:14:36.164Z,16.39
2022-09-17T10:17:21.855Z,16.15
2022-09-17T10:20:20.740Z,15.89
2022-09-17T10:22:50.754Z,15.57
2022-09-17T10:25:32.824Z,15.41
2022-09-17T10:28:03.764Z,15.33
2022-09-17T10:30:32.056Z,15.40
2022-09-17T10:33:28.597Z,15.79
2022-09-17T10:36:10.022Z,16.10
2022-09-17T10:38:40.023Z,16.32
2022-09-17T10:41:13.891Z,16.28
2022-09-17T10:43:42.854Z,16.35
2022-09-17T10:46:15.333Z,16.38
2022-09-17T10:48:46.354Z,16.40
2022-09-17T10:51:24.746Z,16.54
2022-09-17T10:54:07.390Z,16.55
2022-09-17T10:56:37.454Z,16.47
2022-09-17T10:59:37.391Z,16.27
2022-09-17T11:02:28.290Z,15.98
2022-09-17T11:05:06.998Z,15.62
2022-09-17T11:07:44.291Z,15.31
2022-09-17T11:10:23.116Z,15.35
2022-09-17T11:13:07.254Z,15.35
2022-09-17T11:15:52.854Z,15.54
2022-09-17T11:18:36.882Z,15.72
2022-09-17T11:21:19.273Z,15.82
2022-09-17T11:24:28.226Z,16.27
2022-09-17T11:27:03.598Z,16.62
2022-09-17T11:30:03.487Z,16.90
2022-09-17T11:32:48.456Z,17.08
2022-09-17T11:35:21.576Z,17.24
2022-09-17T11:37:59.100Z,17.44
2022-09-17T11:40:37.939Z,17.78
2022-09-17T11:43:17.281Z,18.03
2022-09-17T11:45:54.713Z,18.36
2022-09-17T11:48:27.344Z,18.46
2022-09-17T11:51:00.279Z,18.56
2022-09-17T11:53:38.106Z,18.50
2022-09-17T11:56:16.659Z,18.44
2022-09-17T11:58:49.667Z,18.16
2022-09-17T12:01:23.307Z,18.24
2022-09-17T12:03:55.863Z,18.30
2022-09-17T12:06:33.882Z,18.61
2022-09-17T12:09:10.854Z,18.46
2022-09-17T12:11:47.146Z,18.38
2022-09-17T12:14:22.278Z,18.25
2022-09-17T12:16:54.293Z,18.24
2022-09-17T12:19:28.713Z,18.09
2022-09-17T12:22:00.494Z,17.84
2022-09-17T12:24:30.370Z,17.70
2022-09-17T12:27:28.950Z,17.40
2022-09-17T12:30:12.275Z,17.17
2022-09-17T12:33:09.528Z,16.77
2022-09-17T12:36:07.013Z,16.27
2022-09-17T12:39:03.251Z,15.69
2022-09-17T12:41:42.344Z,15.27
2022-09-17T12:44:31.005Z,14.95
2022-09-17T12:47:18.118Z,14.53
2022-09-17T12:50:00.778Z,14.17
2022-09-17T12:52:40.689Z,14.07
2022-09-17T12:55:24.852Z,13.94
2022-09-17T12:58:01.079Z,13.90
2022-09-17T13:00:36.882Z,13.94
2022-09-17T13:03:19.689Z,13.98
2022-09-17T13:06:20.112Z,14.14
2022-09-17T13:09:17.568Z,14.46
2022-09-17T13:12:09.756Z,14.77
2022-09-17T13:15:04.722Z,15.05
2022-09-17T13:17:40.752Z,15.35
2022-09-17T13:20:18.876Z,15.52
2022-09-17T13:22:48.934Z,15.52
2022-09-17T13:25:20.105Z,15.57
2022-09-17T13:27:50.354Z,15.54
2022-09-17T13:30:19.108Z,15.61
2022-09-17T13:32:57.974Z,15.61
2022-09-17T13:35:52.934Z,15.72
2022-09-17T13:38:24.459Z,15.76
2022-09-17T13:40:53.546Z,15.70
2022-09-17T13:43:28.036Z,15.62
2022-09-17T13:46:15.634Z,15.41
2022-09-17T13:48:51.925Z,15.02
2022-09-17T13:51:51.758Z,14.91
2022-09-17T13:54:22.453Z,14.65
2022-09-17T13:57:07.163Z,14.48
2022-09-17T13:59:37.399Z,14.20
2022-09-17T14:02:36.675Z,14.08
2022-09-17T14:05:33.801Z,13.94
2022-09-17T14:08:14.122Z,13.97
2022-09-17T14:10:43.876Z,13.94
2022-09-17T14:13:42.546Z,13.87
2022-09-17T14:16:36.224Z,13.76
2022-09-17T14:19:19.547Z,13.71
2022-09-17T14:22:00.744Z,13.68
2022-09-17T14:24:35.438Z,13.54
2022-09-17T14:27:15.914Z,13.63
2022-09-17T14:30:07.760Z,13.61
2022-09-17T14:32:42.430Z,13.56
2022-09-17T14:35:20.113Z,13.40
2022-09-17T14:37:55.938Z,13.44
2022-09-17T14:40:25.340Z,13.40
2022-09-17T14:43:00.486Z,13.36
2022-09-17T14:45:32.496Z,13.24
2022-09-17T14:48:20.829Z,13.22
2022-09-17T14:50:48.811Z,13.18
2022-09-17T14:53:19.839Z,13.16
2022-09-17T14:55:49.447Z,13.03
2022-09-17T14:58:32.172Z,13.09
2022-09-17T15:01:00.359Z,13.08
2022-09-17T15:03:28.573Z,13.00
2022-09-17T15:05:56.565Z,12.93
2022-09-17T15:08:29.528Z,12.87
2022-09-17T15:10:59.981Z,12.81
2022-09-17T15:13:30.004Z,12.79
2022-09-17T15:16:02.142Z,12.70
2022-09-17T15:18:41.072Z,12.69
2022-09-17T15:21:24.427Z,12.70
2022-09-17T15:23:59.292Z,12.64
2022-09-17T15:26:33.252Z,12.65
2022-09-17T15:29:02.598Z,12.66
2022-09-17T15:31:31.334Z,12.63
2022-09-17T15:34:01.014Z,12.58
2022-09-17T15:36:31.769Z,12.54
2022-09-17T15:39:01.138Z,12.55
2022-09-17T15:41:33.202Z,12.43
2022-09-17T15:44:30.424Z,12.58
2022-09-17T15:47:34.683Z,12.65
2022-09-17T15:50:14.015Z,12.70
2022-09-17T15:52:44.495Z,12.76
2022-09-17T15:55:35.455Z,12.79
2022-09-17T15:58:06.043Z,12.85
2022-09-17T16:00:34.030Z,12.77
2022-09-17T16:04:02.062Z,12.93
2022-09-17T16:06:40.088Z,12.92
2022-09-17T16:09:53.065Z,12.88
2022-09-17T16:12:24.621Z,12.84
2022-09-17T16:14:53.911Z,12.81
2022-09-17T16:17:24.882Z,12.83
2022-09-17T16:19:53.061Z,12.82
2022-09-17T16:22:20.974Z,12.90
2022-09-17T16:24:48.817Z,12.84
2022-09-17T16:27:20.619Z,12.84
2022-09-17T16:29:56.094Z,12.88
2022-09-17T16:32:26.276Z,12.85
2022-09-17T16:34:54.103Z,12.71
2022-09-17T16:37:22.155Z,12.88
2022-09-17T16:39:50.626Z,12.92
2022-09-17T16:42:18.726Z,12.97
2022-09-17T16:44:46.813Z,12.91
2022-09-17T16:47:16.199Z,12.75
2022-09-17T16:49:44.144Z,12.89
2022-09-17T16:52:12.196Z,12.81
2022-09-17T16:54:40.145Z,12.75
2022-09-17T16:57:08.038Z,12.74
2022-09-17T16:59:36.061Z,12.70
2022-09-17T17:02:04.098Z,12.63
2022-09-17T17:04:33.348Z,12.59
2022-09-17T17:07:02.512Z,12.53
2022-09-17T17:09:30.376Z,12.42
2022-09-17T17:11:58.249Z,12.28
2022-09-17T17:14:29.123Z,12.23
2022-09-17T17:16:57.101Z,12.22
2022-09-17T17:19:26.109Z,12.14
2022-09-17T17:21:55.909Z,12.04
2022-09-17T17:24:26.558Z,11.96
2022-09-17T17:26:54.434Z,11.89
2022-09-17T17:29:22.410Z,11.85
2022-09-17T17:31:51.064Z,11.85
2022-09-17T17:34:22.022Z,11.80
2022-09-17T17:36:50.855Z,11.92
2022-09-17T17:39:20.132Z,11.96
2022-09-17T17:41:51.672Z,11.94
2022-09-17T17:44:24.133Z,11.96
2022-09-17T17:46:52.150Z,12.01
2022-09-17T17:49:20.063Z,12.01
2022-09-17T17:51:49.658Z,12.02
2022-09-17T17:54:21.589Z,12.04
2022-09-17T17:56:50.742Z,12.01
2022-09-17T17:59:18.696Z,12.00
2022-09-17T18:01:46.809Z,11.98
2022-09-17T18:04:15.821Z,11.96
2022-09-17T18:06:44.150Z,12.01
2022-09-17T18:09:12.583Z,11.97
2022-09-17T18:11:40.773Z,12.02
2022-09-17T18:14:12.980Z,12.04
2022-09-17T18:16:41.578Z,11.98
2022-09-17T18:19:11.653Z,11.97
2022-09-17T18:21:39.973Z,11.89
2022-09-17T18:24:07.987Z,11.90
2022-09-17T18:26:36.053Z,11.83
2022-09-17T18:29:07.793Z,11.72
2022-09-17T18:31:37.905Z,11.73
2022-09-17T18:34:08.414Z,11.74
2022-09-17T18:36:37.872Z,11.68
2022-09-17T18:39:44.505Z,11.65
2022-09-17T18:41:55.424Z,11.60
2022-09-17T18:44:23.291Z,11.46
2022-09-17T18:46:52.726Z,11.43
2022-09-17T18:49:22.512Z,11.32
2022-09-17T18:51:50.442Z,11.29
2022-09-17T18:54:18.310Z,11.21
2022-09-17T18:56:46.588Z,11.16
2022-09-17T18:59:14.366Z,11.07
2022-09-17T19:01:42.284Z,11.00
2022-09-17T19:04:11.876Z,10.92
2022-09-17T19:06:39.713Z,10.87
2022-09-17T19:09:07.731Z,10.78
2022-09-17T19:11:36.477Z,10.76
2022-09-17T19:14:04.601Z,10.68
2022-09-17T19:16:32.564Z,10.66
2022-09-17T19:19:00.635Z,10.66
2022-09-17T19:21:30.159Z,10.66
2022-09-17T19:23:59.266Z,10.66
2022-09-17T19:26:28.447Z,10.57
2022-09-17T19:28:58.701Z,10.44
2022-09-17T19:31:27.680Z,10.42
2022-09-17T19:33:56.891Z,10.38
2022-09-17T19:36:24.856Z,10.27
2022-09-17T19:38:54.250Z,10.28
2022-09-17T19:41:25.226Z,10.24
2022-09-17T19:43:54.236Z,10.17
2022-09-17T19:46:25.500Z,10.19
2022-09-17T19:48:55.911Z,10.20
2022-09-17T19:51:25.591Z,10.17
2022-09-17T19:53:54.951Z,10.19
2022-09-17T19:56:27.172Z,10.15
2022-09-17T19:58:55.206Z,10.15
2022-09-17T20:01:23.352Z,10.23
2022-09-17T20:03:54.669Z,10.27
2022-09-17T20:06:23.481Z,10.31
2022-09-17T20:08:53.114Z,10.28
2022-09-17T20:11:24.283Z,10.31
2022-09-17T20:13:57.455Z,10.32
2022-09-17T20:16:25.826Z,10.33
2022-09-17T20:18:53.725Z,10.32
2022-09-17T20:21:24.117Z,10.33
2022-09-17T20:23:52.746Z,10.27
2022-09-17T20:26:22.141Z,10.28
2022-09-17T20:28:53.943Z,10.28
2022-09-17T20:31:23.941Z,10.37
2022-09-17T20:33:53.143Z,10.31
2022-09-17T20:36:26.763Z,10.29
2022-09-17T20:39:11.557Z,10.31
2022-09-17T20:41:43.412Z,10.27
2022-09-17T20:44:11.515Z,10.21
2022-09-17T20:46:42.192Z,10.11
2022-09-17T20:49:12.473Z,10.03
2022-09-17T20:51:40.422Z,9.88
2022-09-17T20:54:08.770Z,9.92
2022-09-17T20:56:37.260Z,9.82
2022-09-17T20:59:14.358Z,9.78
2022-09-17T21:01:45.176Z,9.63
2022-09-17T21:04:15.983Z,9.62
2022-09-17T21:06:44.764Z,9.50
2022-09-17T21:09:16.139Z,9.46
2022-09-17T21:11:44.747Z,9.36
2022-09-17T21:14:15.817Z,9.35
2022-09-17T21:16:44.379Z,9.29
2022-09-17T21:19:16.275Z,9.24
2022-09-17T21:21:48.366Z,9.05
2022-09-17T21:24:16.400Z,8.99
2022-09-17T21:26:45.801Z,9.11
2022-09-17T21:29:15.278Z,9.07
2022-09-17T21:31:43.188Z,8.98
2022-09-17T21:34:13.123Z,8.90
2022-09-17T21:36:43.492Z,8.79
2022-09-17T21:39:13.801Z,8.83
2022-09-17T21:41:42.962Z,8.93
2022-09-17T21:44:12.344Z,8.94
2022-09-17T21:46:42.990Z,8.85
2022-09-17T21:49:13.519Z,8.93
2022-09-17T21:51:43.103Z,8.83
2022-09-17T21:54:13.019Z,8.97
2022-09-17T21:56:43.513Z,9.02
2022-09-17T21:59:13.911Z,8.83
2022-09-17T22:01:47.037Z,8.84
2022-09-17T22:04:17.498Z,8.94
2022-09-17T22:06:46.993Z,8.84
2022-09-17T22:09:17.555Z,8.89
2022-09-17T22:11:45.894Z,8.86
2022-09-17T22:14:18.032Z,8.78
2022-09-17T22:16:50.503Z,8.69
2022-09-17T22:19:20.562Z,8.71
2022-09-17T22:21:51.373Z,8.71
2022-09-17T22:24:21.234Z,8.77
2022-09-17T22:26:56.608Z,8.72
2022-09-17T22:29:25.965Z,8.62
2022-09-17T22:31:55.497Z,8.57
2022-09-17T22:34:25.891Z,8.51
2022-09-17T22:36:54.020Z,8.54
2022-09-17T22:39:22.516Z,8.50
2022-09-17T22:41:51.066Z,8.46
2022-09-17T22:44:24.688Z,8.22
2022-09-17T22:46:53.118Z,8.27
2022-09-17T22:49:22.560Z,8.31
2022-09-17T22:51:50.556Z,8.13
2022-09-17T22:54:19.493Z,8.24
2022-09-17T22:56:48.712Z,8.19
2022-09-17T22:59:18.290Z,8.11
2022-09-17T23:01:46.425Z,8.06
2022-09-17T23:04:14.378Z,8.02
2022-09-17T23:06:44.403Z,7.91
2022-09-17T23:09:13.805Z,8.07
2022-09-17T23:11:41.676Z,7.97
2022-09-17T23:14:12.450Z,7.86
2022-09-17T23:16:42.821Z,7.92
2022-09-17T23:19:11.798Z,7.86
2022-09-17T23:21:39.971Z,7.72
2022-09-17T23:24:10.023Z,7.58
2022-09-17T23:26:38.119Z,7.64
2022-09-17T23:29:06.203Z,7.58
2022-09-17T23:31:35.791Z,7.51
2022-09-17T23:34:05.221Z,7.50
2022-09-17T23:36:35.734Z,7.43
2022-09-17T23:39:04.529Z,7.42
2022-09-17T23:41:35.731Z,7.28
2022-09-17T23:44:05.462Z,7.36
2022-09-17T23:46:35.691Z,7.35
2022-09-17T23:49:04.601Z,7.29
2022-09-17T23:51:37.100Z,7.52
2022-09-17T23:54:07.059Z,7.44
2022-09-17T23:56:36.719Z,7.43
2022-09-17T23:59:05.273Z,7.38
